Time;durP1;ratioP1;P1;durP2;ratioP2;P2;SDS_P1;SDS_P2;PMS_P1;PMS_P2;Temp;Humidity;BMP_temperature;BMP_pressure;BME280_temperature;BME280_humidity;BME280_pressure;Samples;Min_cycle;Max_cycle;Signal;HPM_P1;HPM_P2
2023/04/13 00:00:20;;;;;;;;;1.33;0.33;;;;;23.01;36.15;99969.53;5075427;28;45438;-74
2023/04/13 00:02:52;;;;;;;;;0.00;0.00;;;;;23.01;35.77;99966.03;5075788;28;45355;-74
2023/04/13 00:05:18;;;;;;;;;1.00;1.00;;;;;23.01;36.03;99979.31;5089862;27;45339;-75
2023/04/13 00:07:43;;;;;;;;;3.00;1.00;;;;;22.88;35.84;99954.44;5095925;27;47336;-74
2023/04/13 00:10:09;;;;;;;;;0.00;0.00;;;;;22.98;36.21;99980.53;5081036;27;45407;-73
2023/04/13 00:12:35;;;;;;;;;1.33;0.00;;;;;22.97;36.32;99986.88;5075559;28;45925;-74
2023/04/13 00:15:07;;;;;;;;;1.00;0.00;;;;;22.95;36.22;99997.69;5075271;28;45368;-74
2023/04/13 00:17:32;;;;;;;;;0.00;0.00;;;;;22.94;35.83;99982.00;5075398;28;46055;-74
2023/04/13 00:20:06;;;;;;;;;1.67;0.67;;;;;22.89;35.85;99974.66;5075474;28;45382;-74
2023/04/13 00:22:33;;;;;;;;;1.00;1.00;;;;;22.87;36.07;99973.25;5075808;28;45362;-74
2023/04/13 00:24:58;;;;;;;;;2.00;1.00;;;;;22.87;35.70;99970.59;5073989;28;45365;-74
2023/04/13 00:27:29;;;;;;;;;1.67;0.67;;;;;22.84;36.08;99967.34;5075049;28;45392;-73
2023/04/13 00:29:55;;;;;;;;;2.33;1.00;;;;;22.83;35.74;99970.19;5075474;28;45437;-74
2023/04/13 00:32:24;;;;;;;;;0.33;0.00;;;;;22.89;35.87;99987.94;5074355;28;45565;-74
2023/04/13 00:34:49;;;;;;;;;0.00;0.00;;;;;22.93;35.92;99978.53;5075419;28;45380;-74
2023/04/13 00:37:14;;;;;;;;;0.33;0.00;;;;;22.92;35.96;99986.69;5075144;28;46699;-74
2023/04/13 00:39:42;;;;;;;;;1.33;0.33;;;;;22.92;36.35;99995.47;5075366;28;45414;-74
2023/04/13 00:42:07;;;;;;;;;3.33;0.33;;;;;22.83;35.81;99983.44;5075192;28;45373;-74
2023/04/13 00:44:33;;;;;;;;;0.00;0.00;;;;;22.91;36.32;100000.97;5075457;28;45343;-74
2023/04/13 00:47:01;;;;;;;;;0.00;0.00;;;;;22.92;36.14;99994.66;5075092;28;46177;-74
2023/04/13 00:49:29;;;;;;;;;0.00;0.00;;;;;22.65;35.98;99968.94;5074949;28;45350;-74
2023/04/13 00:51:54;;;;;;;;;0.00;0.00;;;;;22.80;36.16;99983.84;5076955;28;45368;-74
2023/04/13 00:54:21;;;;;;;;;1.33;0.00;;;;;22.85;36.11;100007.91;5078651;28;45487;-74
2023/04/13 00:56:47;;;;;;;;;3.67;1.00;;;;;22.91;35.72;100016.88;5078313;28;46323;-74
2023/04/13 00:59:13;;;;;;;;;0.00;0.00;;;;;22.80;36.03;100007.72;5078529;28;45466;-74
2023/04/13 01:01:44;;;;;;;;;1.00;1.00;;;;;22.59;35.70;99977.72;5078481;28;45420;-74
2023/04/13 01:04:12;;;;;;;;;1.33;0.33;;;;;22.80;35.71;100020.97;5078767;28;45306;-74
2023/04/13 01:06:43;;;;;;;;;4.00;1.00;;;;;22.67;35.90;99989.94;5078239;28;46177;-74
2023/04/13 01:09:15;;;;;;;;;1.00;0.33;;;;;22.90;36.07;100031.97;5078193;28;45379;-74
2023/04/13 01:12:12;;;;;;;;;2.00;1.00;;;;;22.94;35.50;100037.69;5078022;28;45356;-74
2023/04/13 01:14:51;;;;;;;;;1.00;0.00;;;;;22.87;35.56;100028.94;5078444;28;45435;-74
2023/04/13 01:17:22;;;;;;;;;2.00;0.67;;;;;22.94;35.89;100049.13;5076852;28;47998;-74
2023/04/13 01:20:08;;;;;;;;;2.33;2.33;;;;;22.95;35.66;100047.28;5078168;28;45308;-74
2023/04/13 01:22:35;;;;;;;;;2.67;0.00;;;;;22.90;35.82;100039.13;5078271;28;45312;-74
2023/04/13 01:25:22;;;;;;;;;0.67;0.00;;;;;22.94;35.90;100054.44;5078031;28;45284;-74
2023/04/13 01:27:52;;;;;;;;;2.00;0.00;;;;;22.96;35.41;100064.81;5077754;28;46121;-74
2023/04/13 01:30:23;;;;;;;;;1.00;1.00;;;;;22.94;35.24;100067.69;5077950;28;45455;-74
2023/04/13 01:32:50;;;;;;;;;3.00;0.00;;;;;22.94;35.38;100067.69;5078032;28;45216;-73
2023/04/13 01:35:17;;;;;;;;;0.00;0.00;;;;;22.89;35.48;100067.50;5078069;28;45265;-74
2023/04/13 01:37:43;;;;;;;;;0.67;0.67;;;;;22.91;35.87;100067.28;5077739;27;47056;-74
2023/04/13 01:40:12;;;;;;;;;1.00;1.00;;;;;22.81;36.05;100051.78;5077369;28;45400;-74
2023/04/13 01:42:42;;;;;;;;;2.00;0.00;;;;;22.90;35.77;100071.75;5077956;28;45368;-74
2023/04/13 01:45:12;;;;;;;;;0.67;0.67;;;;;22.90;35.90;100063.81;5077797;28;45440;-74
2023/04/13 01:47:58;;;;;;;;;0.33;0.33;;;;;22.88;36.14;100068.50;5077679;28;45289;-74
2023/04/13 01:50:28;;;;;;;;;2.33;1.00;;;;;22.87;36.02;100074.84;5077572;28;45306;-73
2023/04/13 01:52:58;;;;;;;;;1.33;1.33;;;;;22.88;35.43;100076.47;5077794;28;45352;-73
2023/04/13 01:55:24;;;;;;;;;1.33;1.00;;;;;22.87;35.39;100074.03;5077353;28;45352;-74
2023/04/13 01:57:53;;;;;;;;;2.67;1.33;;;;;22.87;35.73;100081.97;5077558;28;47280;-73
2023/04/13 02:00:18;;;;;;;;;0.00;0.00;;;;;22.83;35.93;100082.38;5077664;28;45364;-74
2023/04/13 02:02:44;;;;;;;;;3.00;1.00;;;;;22.87;36.03;100079.31;5077109;28;45300;-73
2023/04/13 02:05:10;;;;;;;;;1.33;1.33;;;;;22.79;35.89;100070.56;5077576;28;45585;-73
2023/04/13 02:07:40;;;;;;;;;0.00;0.00;;;;;22.86;35.69;100078.50;5077425;28;46289;-74
2023/04/13 02:10:06;;;;;;;;;0.67;0.67;;;;;22.84;35.65;100084.03;5076942;28;45478;-73
2023/04/13 02:12:32;;;;;;;;;0.00;0.00;;;;;22.82;35.41;100082.59;5077376;28;45311;-73
2023/04/13 02:14:59;;;;;;;;;4.00;1.00;;;;;22.76;35.69;100076.28;5077464;28;45351;-73
2023/04/13 02:17:26;;;;;;;;;1.67;0.33;;;;;22.84;36.02;100107.91;5077038;28;46131;-73
2023/04/13 02:19:51;;;;;;;;;2.00;0.00;;;;;22.84;35.86;100096.47;5077412;28;45445;-74
2023/04/13 02:22:17;;;;;;;;;0.33;0.33;;;;;22.84;35.82;100099.94;5077363;28;45396;-73
2023/04/13 02:24:42;;;;;;;;;1.00;0.00;;;;;22.83;35.57;100106.25;5077086;28;45347;-74
2023/04/13 02:27:09;;;;;;;;;1.00;1.00;;;;;22.83;35.43;100102.78;5077235;28;46405;-74
2023/04/13 02:29:34;;;;;;;;;2.00;1.00;;;;;22.79;35.47;100106.88;5077078;28;45328;-74
2023/04/13 02:32:00;;;;;;;;;0.00;0.00;;;;;22.78;35.56;100106.03;5077066;28;45408;-74
2023/04/13 02:34:26;;;;;;;;;1.00;1.00;;;;;22.81;35.94;100118.91;5077159;28;45499;-73
2023/04/13 02:36:52;;;;;;;;;1.00;1.00;;;;;22.78;35.81;100111.34;5076922;27;46938;-73
2023/04/13 02:39:18;;;;;;;;;3.00;0.00;;;;;22.69;35.48;100089.47;5076836;28;45388;-73
2023/04/13 02:41:43;;;;;;;;;0.00;0.00;;;;;22.83;36.01;100122.16;5077008;28;45316;-74
2023/04/13 02:44:10;;;;;;;;;0.00;0.00;;;;;22.76;35.52;100112.56;5076997;28;45399;-74
2023/04/13 02:46:35;;;;;;;;;1.00;1.00;;;;;22.83;35.74;100124.81;5076846;28;46088;-73
2023/04/13 02:49:01;;;;;;;;;1.00;1.00;;;;;22.78;35.78;100113.19;5076809;28;45371;-74
2023/04/13 02:51:26;;;;;;;;;0.67;0.00;;;;;22.89;35.38;100132.97;5077044;28;45270;-74
2023/04/13 02:53:52;;;;;;;;;0.00;0.00;;;;;22.78;35.40;100114.00;5076631;28;45204;-74
2023/04/13 02:56:17;;;;;;;;;0.33;0.33;;;;;22.87;35.10;100124.41;5076762;28;45431;-73
2023/04/13 02:58:43;;;;;;;;;1.00;0.67;;;;;22.54;35.57;100081.72;5076726;28;45308;-74
2023/04/13 03:01:09;;;;;;;;;1.00;1.00;;;;;22.81;35.37;100121.56;5076796;28;45357;-74
2023/04/13 03:03:34;;;;;;;;;1.00;0.00;;;;;22.89;35.43;100138.28;5076866;28;45392;-74
2023/04/13 03:06:00;;;;;;;;;0.67;0.67;;;;;22.90;35.01;100134.63;5076593;28;45930;-74
2023/04/13 03:08:26;;;;;;;;;1.00;0.00;;;;;22.85;35.32;100129.91;5076108;28;45415;-74
2023/04/13 03:10:53;;;;;;;;;1.00;1.00;;;;;22.87;35.29;100130.53;5076832;28;45369;-74
2023/04/13 03:13:19;;;;;;;;;2.00;1.00;;;;;22.79;35.69;100118.31;5075975;28;45351;-74
2023/04/13 03:15:45;;;;;;;;;3.33;2.00;;;;;22.69;35.21;100108.03;5078075;27;46991;-74
2023/04/13 03:18:10;;;;;;;;;2.00;0.00;;;;;22.85;35.85;100137.88;5096566;27;45260;-74
2023/04/13 03:20:36;;;;;;;;;4.33;1.00;;;;;22.71;35.47;100110.53;5094354;27;45827;-74
2023/04/13 03:23:01;;;;;;;;;0.33;0.33;;;;;22.59;36.07;100104.97;5076221;28;45348;-74
2023/04/13 03:25:26;;;;;;;;;1.67;1.33;;;;;22.82;35.29;100138.28;5075970;28;45465;-73
2023/04/13 03:27:52;;;;;;;;;2.00;1.00;;;;;22.82;35.60;100140.94;5076448;28;45403;-74
2023/04/13 03:30:17;;;;;;;;;2.00;0.67;;;;;22.82;35.67;100144.38;5076051;28;45384;-73
2023/04/13 03:32:43;;;;;;;;;1.00;1.00;;;;;22.74;35.47;100137.44;5056504;28;45433;-74
2023/04/13 03:35:08;;;;;;;;;1.00;1.00;;;;;22.81;35.39;100157.88;5076233;28;46223;-73
2023/04/13 03:37:39;;;;;;;;;1.00;1.00;;;;;22.81;35.84;100149.91;5075580;28;45310;-74
2023/04/13 03:40:08;;;;;;;;;3.00;2.00;;;;;22.79;35.86;100159.91;5076269;28;45465;-74
2023/04/13 03:42:34;;;;;;;;;1.67;0.67;;;;;22.70;35.68;100148.66;5076147;28;45163;-73
2023/04/13 03:44:59;;;;;;;;;0.33;0.33;;;;;22.80;35.71;100164.19;5075817;28;47049;-74
2023/04/13 03:47:24;;;;;;;;;3.33;0.33;;;;;22.79;35.24;100170.53;5076072;28;45258;-74
2023/04/13 03:49:50;;;;;;;;;4.00;0.00;;;;;22.78;35.64;100172.34;5076160;28;45692;-74
2023/04/13 03:52:15;;;;;;;;;1.00;1.00;;;;;22.78;35.55;100174.19;5075580;28;45416;-74
2023/04/13 03:54:41;;;;;;;;;0.00;0.00;;;;;22.78;35.60;100187.44;5075943;28;47061;-74
2023/04/13 03:57:06;;;;;;;;;0.67;0.33;;;;;22.77;35.39;100194.56;5075901;28;45465;-74
2023/04/13 03:59:31;;;;;;;;;1.00;1.00;;;;;22.77;35.42;100199.09;5075902;28;45855;-73
2023/04/13 04:01:57;;;;;;;;;1.00;1.00;;;;;22.73;35.43;100193.34;5076146;28;45364;-74
2023/04/13 04:04:22;;;;;;;;;0.33;0.33;;;;;22.72;35.42;100189.88;5075681;28;46041;-74
2023/04/13 04:06:47;;;;;;;;;1.67;0.00;;;;;22.78;35.47;100198.88;5075349;28;46659;-74
2023/04/13 04:09:13;;;;;;;;;1.67;0.67;;;;;22.77;35.32;100205.19;5075941;28;45470;-74
2023/04/13 04:11:38;;;;;;;;;0.33;0.00;;;;;22.70;35.11;100197.22;5076031;28;45455;-74
2023/04/13 04:14:04;;;;;;;;;1.00;1.00;;;;;22.73;35.42;100198.66;5075744;28;45554;-73
2023/04/13 04:16:29;;;;;;;;;2.00;0.00;;;;;22.73;35.59;100201.31;5074958;28;45376;-73
2023/04/13 04:18:54;;;;;;;;;2.00;1.67;;;;;22.81;35.71;100213.56;5075833;28;45356;-73
2023/04/13 04:21:22;;;;;;;;;1.67;1.67;;;;;22.80;35.14;100212.75;5075569;28;45404;-73
2023/04/13 04:23:47;;;;;;;;;2.00;1.00;;;;;22.81;35.09;100208.25;5075542;28;46139;-73
2023/04/13 04:26:14;;;;;;;;;1.00;1.00;;;;;22.73;35.57;100193.34;5077599;28;45411;-73
2023/04/13 04:28:40;;;;;;;;;1.67;0.33;;;;;22.82;35.52;100208.03;5079289;28;45361;-73
2023/04/13 04:31:09;;;;;;;;;3.33;2.00;;;;;22.82;34.86;100216.00;5079097;28;45442;-74
2023/04/13 04:33:37;;;;;;;;;0.33;0.33;;;;;22.58;35.41;100182.88;5073605;28;46407;-74
2023/04/13 04:36:05;;;;;;;;;0.00;0.00;;;;;22.82;35.19;100226.59;5078412;28;45689;-74
2023/04/13 04:38:31;;;;;;;;;1.67;0.33;;;;;22.83;35.56;100227.44;5078865;27;45328;-74
2023/04/13 04:40:58;;;;;;;;;2.67;1.33;;;;;22.80;34.85;100228.66;5079004;28;45467;-74
2023/04/13 04:43:28;;;;;;;;;0.00;0.00;;;;;22.82;35.56;100234.56;5078645;28;46067;-74
2023/04/13 04:45:56;;;;;;;;;0.00;0.00;;;;;22.72;35.48;100229.66;5078900;28;45435;-73
2023/04/13 04:48:23;;;;;;;;;0.00;0.00;;;;;22.69;35.58;100227.38;5078855;28;45461;-74
2023/04/13 04:50:51;;;;;;;;;2.00;1.00;;;;;22.79;35.63;100248.25;5078721;28;45447;-74
2023/04/13 04:53:17;;;;;;;;;2.67;0.67;;;;;22.79;35.54;100252.72;5078503;28;46128;-74
2023/04/13 04:55:42;;;;;;;;;0.00;0.00;;;;;22.78;35.66;100253.75;5078627;28;45352;-73
2023/04/13 04:58:07;;;;;;;;;0.33;0.33;;;;;22.70;35.14;100247.59;5078815;28;45235;-74
2023/04/13 05:00:34;;;;;;;;;0.33;0.00;;;;;22.66;35.24;100240.22;5078880;28;45221;-74
2023/04/13 05:03:00;;;;;;;;;0.00;0.00;;;;;22.74;35.38;100263.94;5078292;28;46329;-74
2023/04/13 05:05:26;;;;;;;;;2.00;0.00;;;;;22.69;35.26;100255.75;5078399;28;45358;-74
2023/04/13 05:07:52;;;;;;;;;2.33;1.00;;;;;22.74;35.46;100263.94;5078779;28;45316;-73
2023/04/13 05:10:17;;;;;;;;;1.00;1.00;;;;;22.70;35.74;100250.25;5078476;28;45250;-74
2023/04/13 05:12:42;;;;;;;;;3.00;1.00;;;;;22.72;35.22;100265.94;5078150;28;47356;-74
2023/04/13 05:15:08;;;;;;;;;0.00;0.00;;;;;22.78;35.16;100282.91;5078504;28;45367;-74
2023/04/13 05:17:35;;;;;;;;;0.00;0.00;;;;;22.76;35.31;100275.16;5078081;28;45363;-74
2023/04/13 05:20:01;;;;;;;;;1.33;0.33;;;;;22.68;35.52;100254.91;5078468;28;45591;-74
2023/04/13 05:22:26;;;;;;;;;0.75;0.50;;;;;22.74;35.53;100277.19;5078354;28;45408;-73
2023/04/13 05:24:51;;;;;;;;;3.00;1.33;;;;;22.63;35.19;100267.94;5077951;28;45360;-74
2023/04/13 05:27:17;;;;;;;;;2.00;0.33;;;;;22.75;35.53;100284.13;5078269;28;45302;-74
2023/04/13 05:29:42;;;;;;;;;1.00;1.00;;;;;22.74;35.03;100290.47;5078263;28;45413;-73
2023/04/13 05:32:07;;;;;;;;;0.33;0.33;;;;;22.72;35.22;100293.28;5077677;28;45965;-74
2023/04/13 05:34:34;;;;;;;;;2.67;0.00;;;;;22.65;35.33;100284.47;5078180;28;45426;-73
2023/04/13 05:37:00;;;;;;;;;2.00;1.00;;;;;22.63;35.24;100278.56;5077083;28;45442;-73
2023/04/13 05:39:26;;;;;;;;;0.67;0.67;;;;;22.40;35.30;100258.47;5078035;28;45482;-74
2023/04/13 05:41:51;;;;;;;;;4.00;1.00;;;;;22.61;35.47;100299.16;5077799;28;46247;-74
2023/04/13 05:44:17;;;;;;;;;2.00;1.00;;;;;22.62;35.52;100295.47;5077750;28;45438;-73
2023/04/13 05:46:42;;;;;;;;;1.00;1.00;;;;;22.57;35.06;100293.41;5077828;28;45936;-74
2023/04/13 05:49:08;;;;;;;;;0.00;0.00;;;;;22.63;35.41;100313.03;5077979;28;45389;-73
2023/04/13 05:51:34;;;;;;;;;1.33;0.00;;;;;22.68;35.00;100313.25;5077846;28;45325;-74
2023/04/13 05:53:59;;;;;;;;;1.00;1.00;;;;;22.62;35.45;100293.63;5077846;28;45415;-74
2023/04/13 05:56:25;;;;;;;;;3.67;1.00;;;;;22.73;35.80;100316.16;5077919;28;45367;-73
2023/04/13 05:58:51;;;;;;;;;0.00;0.00;;;;;22.77;35.47;100326.38;5077710;28;45406;-73
2023/04/13 06:01:18;;;;;;;;;1.00;1.00;;;;;22.71;34.98;100312.06;5077442;28;45316;-73
2023/04/13 06:03:44;;;;;;;;;1.00;1.00;;;;;22.78;35.34;100320.03;5077432;28;45345;-73
2023/04/13 06:06:11;;;;;;;;;1.33;1.33;;;;;22.67;35.38;100305.47;5077458;28;45281;-73
2023/04/13 06:08:37;;;;;;;;;3.00;1.33;;;;;22.78;34.83;100326.16;5077484;28;45367;-74
2023/04/13 06:11:03;;;;;;;;;4.67;1.00;;;;;22.79;35.39;100327.81;5077272;28;46769;-74
2023/04/13 06:13:30;;;;;;;;;2.00;1.00;;;;;22.80;34.79;100334.75;5077109;28;45538;-74
2023/04/13 06:15:56;;;;;;;;;1.67;0.00;;;;;22.81;34.92;100330.25;5077295;28;45260;-73
2023/04/13 06:18:23;;;;;;;;;1.33;1.00;;;;;22.61;35.21;100307.09;5077339;28;45455;-74
2023/04/13 06:20:48;;;;;;;;;0.67;0.67;;;;;22.74;34.97;100322.28;5077261;28;47421;-75
2023/04/13 06:23:14;;;;;;;;;4.00;1.50;;;;;22.82;34.75;100332.69;5077150;28;45447;-74
2023/04/13 06:25:39;;;;;;;;;1.00;0.67;;;;;22.69;35.06;100312.22;5077419;28;45548;-75
2023/04/13 06:28:04;;;;;;;;;2.33;0.67;;;;;22.86;35.04;100330.47;5078575;27;45395;-74
2023/04/13 06:30:30;;;;;;;;;1.00;1.00;;;;;23.04;35.25;100337.06;5097116;27;45909;-75
2023/04/13 06:32:55;;;;;;;;;0.67;0.67;;;;;23.19;35.05;100347.50;5066042;27;45464;-75
2023/04/13 06:35:21;;;;;;;;;2.00;1.00;;;;;23.27;34.85;100344.69;5077035;28;45395;-75
2023/04/13 06:37:46;;;;;;;;;1.00;1.00;;;;;23.28;35.17;100345.50;5075804;28;45301;-75
2023/04/13 06:40:13;;;;;;;;;3.00;0.00;;;;;23.23;34.98;100334.66;5076265;28;46225;-73
2023/04/13 06:42:40;;;;;;;;;0.00;0.00;;;;;23.37;35.11;100344.28;5076683;28;45365;-75
2023/04/13 06:45:07;;;;;;;;;0.67;0.00;;;;;23.48;34.72;100336.75;5076599;28;45409;-74
2023/04/13 06:47:34;;;;;;;;;3.00;1.00;;;;;23.69;33.79;100346.41;5076681;28;45523;-75
2023/04/13 06:50:05;;;;;;;;;3.00;1.67;;;;;23.65;33.28;100341.72;5076746;28;47039;-73
2023/04/13 06:52:30;;;;;;;;;2.00;1.00;;;;;23.60;33.87;100342.31;5076783;28;45329;-73
2023/04/13 06:54:56;;;;;;;;;2.67;1.00;;;;;23.50;34.18;100324.94;5075968;28;45709;-72
2023/04/13 06:57:21;;;;;;;;;1.00;1.00;;;;;23.65;33.83;100341.72;5057122;28;45815;-74
2023/04/13 06:59:46;;;;;;;;;2.67;1.67;;;;;23.73;34.13;100355.59;5069530;28;46765;-73
2023/04/13 07:02:11;;;;;;;;;1.67;0.00;;;;;23.72;34.00;100342.53;5075950;28;45574;-73
2023/04/13 07:04:37;;;;;;;;;1.00;1.00;;;;;23.77;33.71;100357.84;5076039;28;45357;-73
2023/04/13 07:07:02;;;;;;;;;4.33;2.00;;;;;23.78;33.67;100360.31;5075925;28;45600;-74
2023/04/13 07:09:28;;;;;;;;;3.00;1.00;;;;;23.79;33.75;100361.94;5074921;28;45478;-74
2023/04/13 07:11:53;;;;;;;;;1.00;1.00;;;;;23.80;33.37;100360.09;5074907;28;45450;-74
2023/04/13 07:14:18;;;;;;;;;2.00;1.00;;;;;23.79;33.38;100347.81;5075272;28;45538;-73
2023/04/13 07:16:44;;;;;;;;;0.00;0.00;;;;;23.80;33.76;100360.09;5073751;28;45416;-73
2023/04/13 07:19:09;;;;;;;;;2.67;1.00;;;;;23.79;33.61;100356.63;5073326;28;46150;-74
2023/04/13 07:21:34;;;;;;;;;2.00;0.00;;;;;23.73;33.52;100350.28;5075723;28;45455;-74
2023/04/13 07:24:00;;;;;;;;;2.00;0.00;;;;;23.79;33.47;100361.94;5076095;28;45442;-74
2023/04/13 07:26:26;;;;;;;;;2.00;2.00;;;;;23.79;33.66;100369.91;5074938;28;45554;-74
2023/04/13 07:28:51;;;;;;;;;2.33;0.00;;;;;23.79;33.58;100361.94;5073970;28;46925;-73
2023/04/13 07:31:16;;;;;;;;;3.67;0.00;;;;;23.82;33.79;100366.00;5075590;28;46564;-73
2023/04/13 07:33:42;;;;;;;;;2.67;0.00;;;;;23.80;33.48;100355.59;5075582;28;45416;-73
2023/04/13 07:36:07;;;;;;;;;0.67;0.33;;;;;23.77;33.62;100361.31;5075769;28;45403;-74
2023/04/13 07:38:33;;;;;;;;;1.00;0.00;;;;;23.85;33.68;100379.72;5074075;28;45556;-74
2023/04/13 07:40:59;;;;;;;;;0.00;0.00;;;;;23.88;33.74;100385.63;5074566;28;45667;-73
2023/04/13 07:43:25;;;;;;;;;1.00;1.00;;;;;23.87;33.57;100381.34;5073940;28;45440;-73
2023/04/13 07:45:50;;;;;;;;;1.00;1.00;;;;;23.87;33.32;100379.50;5075616;28;45539;-73
2023/04/13 07:48:16;;;;;;;;;1.67;0.33;;;;;23.93;33.37;100393.81;5073564;28;46154;-72
2023/04/13 07:50:42;;;;;;;;;1.33;1.33;;;;;23.94;33.27;100388.28;5074138;28;45308;-72
2023/04/13 07:53:07;;;;;;;;;2.00;0.00;;;;;23.96;33.74;100385.44;5075225;28;45355;-72
2023/04/13 07:55:33;;;;;;;;;0.00;0.00;;;;;23.96;33.56;100391.56;5070457;28;45522;-74
2023/04/13 07:57:58;;;;;;;;;2.00;0.50;;;;;24.00;33.30;100393.81;5073638;28;46083;-74
2023/04/13 08:00:24;;;;;;;;;1.00;1.00;;;;;24.03;33.57;100401.38;5077097;28;45352;-74
2023/04/13 08:02:50;;;;;;;;;0.00;0.00;;;;;24.04;33.32;100403.03;5082242;28;45328;-73
2023/04/13 08:05:15;;;;;;;;;1.33;0.33;;;;;24.03;33.43;100412.81;5082369;28;45418;-75
2023/04/13 08:07:40;;;;;;;;;2.67;0.67;;;;;23.99;33.35;100403.63;5082098;28;46033;-76
2023/04/13 08:10:07;;;;;;;;;1.67;1.67;;;;;24.01;33.29;100406.91;5082376;28;45313;-75
2023/04/13 08:12:32;;;;;;;;;1.00;1.00;;;;;24.00;33.26;100405.25;5082356;28;45658;-74
2023/04/13 08:14:57;;;;;;;;;0.00;0.00;;;;;23.99;33.46;100414.28;5082307;28;45365;-75
2023/04/13 08:17:23;;;;;;;;;0.67;0.33;;;;;23.99;33.38;100419.59;5082515;28;45337;-75
2023/04/13 08:19:48;;;;;;;;;2.67;1.00;;;;;23.99;33.32;100422.25;5082657;28;45347;-75
2023/04/13 08:22:14;;;;;;;;;1.67;0.00;;;;;23.91;33.48;100412.63;5082883;28;45430;-75
2023/04/13 08:24:40;;;;;;;;;3.00;1.00;;;;;23.69;33.68;100374.78;5082832;28;45380;-75
2023/04/13 08:27:06;;;;;;;;;2.00;0.67;;;;;23.88;33.66;100404.22;5081872;28;47109;-75
2023/04/13 08:29:31;;;;;;;;;2.00;1.00;;;;;23.99;33.66;100424.06;5082062;28;45297;-75
2023/04/13 08:31:57;;;;;;;;;3.67;0.67;;;;;23.99;33.42;100419.59;5082247;28;45364;-76
2023/04/13 08:34:23;;;;;;;;;2.00;2.00;;;;;24.01;33.23;100424.69;5082275;28;45439;-76
2023/04/13 08:36:49;;;;;;;;;1.33;1.33;;;;;23.94;33.47;100414.84;5081949;28;45459;-74
2023/04/13 08:39:15;;;;;;;;;1.00;1.00;;;;;24.00;33.35;100431.81;5082298;28;45536;-76
2023/04/13 08:41:45;;;;;;;;;2.00;2.00;;;;;23.78;33.42;100388.72;5081962;28;45417;-75
2023/04/13 08:44:12;;;;;;;;;1.00;0.00;;;;;23.92;33.19;100402.78;5082017;28;45217;-75
2023/04/13 08:46:40;;;;;;;;;2.00;2.00;;;;;24.04;33.70;100433.06;5081860;28;46355;-75
2023/04/13 08:49:07;;;;;;;;;2.33;1.00;;;;;23.98;33.29;100412.63;5081840;28;45362;-75
2023/04/13 08:51:34;;;;;;;;;1.00;1.00;;;;;24.02;33.33;100424.47;5082156;28;45400;-75
2023/04/13 08:53:59;;;;;;;;;3.00;0.00;;;;;24.06;33.40;100420.41;5082175;28;45318;-75
2023/04/13 08:56:26;;;;;;;;;1.00;1.00;;;;;23.97;33.31;100410.97;5081604;28;45973;-75
2023/04/13 08:58:57;;;;;;;;;0.67;0.67;;;;;24.11;33.32;100416.28;5090748;27;45398;-76
2023/04/13 09:01:23;;;;;;;;;1.67;1.00;;;;;24.22;33.24;100439.63;5085212;27;45564;-75
2023/04/13 09:04:01;;;;;;;;;1.00;1.00;;;;;24.16;33.13;100427.94;5081965;28;45572;-75
2023/04/13 09:06:33;;;;;;;;;1.00;0.00;;;;;24.26;33.31;100438.19;5081904;28;46986;-75
2023/04/13 09:09:04;;;;;;;;;4.00;0.00;;;;;24.28;33.15;100446.78;5081731;28;45343;-76
2023/04/13 09:11:30;;;;;;;;;0.00;0.00;;;;;24.28;33.04;100446.78;5079992;28;45274;-75
2023/04/13 09:13:55;;;;;;;;;2.00;1.00;;;;;24.05;33.03;100408.13;5078194;28;45301;-75
2023/04/13 09:16:21;;;;;;;;;1.33;1.33;;;;;24.38;33.06;100459.66;5078518;28;45953;-76
2023/04/13 09:18:55;;;;;;;;;0.67;0.67;;;;;24.40;32.91;100451.50;5078295;28;45340;-76
2023/04/13 09:21:22;;;;;;;;;1.00;1.00;;;;;24.42;32.94;100457.41;5078707;28;45436;-76
2023/04/13 09:23:56;;;;;;;;;0.00;0.00;;;;;24.42;33.04;100456.59;5078036;28;45467;-76
2023/04/13 09:26:21;;;;;;;;;2.00;0.67;;;;;24.46;32.87;100463.94;5078195;28;46036;-76
2023/04/13 09:28:48;;;;;;;;;1.00;1.00;;;;;24.44;32.95;100463.34;5078136;28;45363;-77
2023/04/13 09:31:14;;;;;;;;;1.33;1.33;;;;;24.40;32.98;100454.16;5078326;28;45438;-76
2023/04/13 09:33:44;;;;;;;;;0.00;0.00;;;;;24.48;32.85;100463.75;5078246;28;45420;-76
2023/04/13 09:36:12;;;;;;;;;0.00;0.00;;;;;24.49;32.92;100465.38;5077962;28;47139;-76
2023/04/13 09:38:37;;;;;;;;;2.00;1.00;;;;;24.44;32.62;100463.34;5077481;28;45399;-76
2023/04/13 09:41:02;;;;;;;;;0.00;0.00;;;;;24.44;33.20;100459.84;5091723;27;45332;-76
2023/04/13 09:43:38;;;;;;;;;0.67;0.67;;;;;24.32;32.97;100438.41;5098334;27;45415;-76
2023/04/13 09:46:10;;;;;;;;;2.00;0.67;;;;;24.36;32.81;100458.22;5080814;27;45542;-76
2023/04/13 09:48:36;;;;;;;;;1.00;0.00;;;;;24.44;32.96;100467.81;5078027;28;45438;-76
2023/04/13 09:51:05;;;;;;;;;0.00;0.00;;;;;24.44;32.67;100476.63;5076200;28;45526;-77
2023/04/13 09:53:46;;;;;;;;;0.67;0.67;;;;;24.40;32.89;100465.59;5077631;28;45657;-76
2023/04/13 09:56:12;;;;;;;;;2.00;0.00;;;;;24.44;32.84;100467.81;5076472;28;46153;-76
2023/04/13 09:58:46;;;;;;;;;0.00;0.00;;;;;24.43;32.86;100469.69;5077470;28;47052;-76
2023/04/13 10:01:14;;;;;;;;;3.00;0.00;;;;;24.35;32.61;100462.75;5077760;28;45308;-76
2023/04/13 10:03:41;;;;;;;;;2.00;1.00;;;;;24.44;32.88;100483.78;5077641;28;45412;-76
2023/04/13 10:06:07;;;;;;;;;2.00;0.33;;;;;24.29;33.06;100458.25;5077360;28;47284;-76
2023/04/13 10:08:36;;;;;;;;;0.00;0.00;;;;;24.31;32.73;100472.13;5076872;27;45392;-77
2023/04/13 10:11:03;;;;;;;;;1.67;0.00;;;;;24.39;32.72;100516.31;5077811;28;45438;-76
2023/04/13 10:13:51;;;;;;;;;0.33;0.00;;;;;24.34;32.75;100518.75;5077615;28;45496;-77
2023/04/13 10:16:41;;;;;;;;;2.00;1.00;;;;;24.28;32.86;100518.56;5077362;28;45392;-77
2023/04/13 10:19:17;;;;;;;;;3.33;0.33;;;;;24.20;32.75;100517.94;5077232;28;45346;-75
2023/04/13 10:21:44;;;;;;;;;1.00;1.00;;;;;24.20;32.99;100526.69;5077538;28;45751;-75
2023/04/13 10:24:11;;;;;;;;;0.33;0.33;;;;;24.16;32.98;100531.59;5076452;28;45391;-75
2023/04/13 10:26:37;;;;;;;;;2.33;1.00;;;;;24.12;33.01;100527.72;5077286;28;46287;-76
2023/04/13 10:29:03;;;;;;;;;1.00;0.00;;;;;24.05;32.67;100517.06;5077006;28;45340;-75
2023/04/13 10:31:40;;;;;;;;;0.00;0.00;;;;;23.99;33.24;100515.25;5077188;28;45258;-75
2023/04/13 10:34:07;;;;;;;;;2.00;0.00;;;;;24.02;33.31;100522.00;5077299;28;45407;-75
2023/04/13 10:36:45;;;;;;;;;1.00;0.00;;;;;24.00;32.87;100524.81;5076919;28;46067;-75
2023/04/13 10:39:23;;;;;;;;;0.00;0.00;;;;;23.99;33.20;100520.56;5076858;27;45364;-75
2023/04/13 10:41:58;;;;;;;;;2.00;0.67;;;;;23.97;32.91;100503.97;5077364;28;45364;-75
2023/04/13 10:44:23;;;;;;;;;0.00;0.00;;;;;24.02;32.92;100519.34;5076777;28;45505;-75
2023/04/13 10:46:49;;;;;;;;;1.00;1.00;;;;;24.02;33.05;100524.66;5076938;28;45348;-75
2023/04/13 10:49:14;;;;;;;;;0.00;0.00;;;;;23.97;33.11;100511.94;5077184;27;45440;-76
2023/04/13 10:51:42;;;;;;;;;0.33;0.00;;;;;24.00;32.84;100521.34;5076931;28;45519;-76
2023/04/13 10:54:08;;;;;;;;;0.67;0.00;;;;;23.92;33.40;100509.91;5077040;28;45407;-76
2023/04/13 10:56:35;;;;;;;;;0.00;0.00;;;;;24.00;32.63;100521.34;5076515;28;47115;-77
2023/04/13 10:59:00;;;;;;;;;0.00;0.00;;;;;24.02;33.13;100536.06;5076607;28;45332;-76
2023/04/13 11:01:28;;;;;;;;;1.00;0.00;;;;;24.00;32.83;100531.97;5076925;28;45289;-76
2023/04/13 11:03:55;;;;;;;;;1.00;1.00;;;;;24.02;32.86;100543.25;5076788;28;45183;-77
2023/04/13 11:06:20;;;;;;;;;0.00;0.00;;;;;23.95;32.80;100536.06;5076384;28;46620;-76
2023/04/13 11:08:45;;;;;;;;;2.00;1.00;;;;;23.98;32.92;100539.34;5076673;28;45435;-76
2023/04/13 11:11:11;;;;;;;;;0.67;0.67;;;;;23.69;32.72;100504.94;5077043;28;45292;-76
2023/04/13 11:13:46;;;;;;;;;0.33;0.33;;;;;23.92;32.94;100536.47;5076747;28;45439;-76
2023/04/13 11:16:12;;;;;;;;;0.67;0.00;;;;;23.95;33.13;100549.34;5076055;28;46205;-76
2023/04/13 11:18:38;;;;;;;;;0.00;0.00;;;;;23.93;33.18;100547.91;5076449;28;45442;-76
2023/04/13 11:21:03;;;;;;;;;0.00;0.00;;;;;23.92;32.93;100541.78;5076211;28;45382;-76
2023/04/13 11:23:33;;;;;;;;;1.00;0.00;;;;;23.84;33.36;100529.50;5076597;28;45342;-76
2023/04/13 11:26:00;;;;;;;;;0.00;0.00;;;;;23.87;32.95;100538.91;5076460;28;45358;-76